Baltimore, OH (43105)

11:57 AM EST on February 12, 2016 (GMT -0500)
Millersport | | Change Station
CLOSE
Current Station
Personal Weather Station
Location: Millersport, OH
Elevation: 896 ft
Nearby Weather Stations

Elev 896 ft 39.90 °N, 82.53 °W | Updated 5 minutes ago

Overcast
Overcast
25.2 °F
Feels Like 25 °F
N
0.0
Wind Variable Wind from West

Today
High -- | Low -- °F
--% Chance of Precip.
Yesterday
High -- | Low -- °F
Precip. -- in
Pressure 30.17 in
Visibility 10.0 miles
Clouds Few 6000 ft
Mostly Cloudy 7000 ft
Overcast 9000 ft
Windchill 25 °F
Dew Point 9 °F
Humidity 50%
Rainfall 0.00 in
Snow Depth Not available.
7:27 AM 6:02 PM
Waxing Crescent, 22% visible
METAR KLHQ 121653Z AUTO 21008KT 10SM FEW060 BKN070 OVC090 M06/M13 A3012 RMK AO2 SLP215 T10561133
Pressure 30.17 in
Visibility 10.0 miles
Clouds Few 6000 ft
Mostly Cloudy 7000 ft
Overcast 9000 ft
Windchill 25 °F
Dew Point 9 °F
Humidity 50%
Rainfall 0.00 in
Snow Depth Not available.
7:27 AM 6:02 PM
Waxing Crescent, 22% visible
METAR KLHQ 121653Z AUTO 21008KT 10SM FEW060 BKN070 OVC090 M06/M13 A3012 RMK AO2 SLP215 T10561133

10-Day Weather Forecast

Almanac

Astronomy

Feb. 12, 2016 Rise Set
Actual Time
Civil Twilight
Nautical Twilight
Astronomical Twilight
Moon
Length of Visible Light
Length of Day
Tomorrow will be .
, % of the Moon is Illuminated

Today's Extremes

State Highs State Lows

Community

WunderPhotos

Upload Photos

1,892,354 photos uploaded!

WunderBlog® & News

Nearby

Air Quality

  Air Quality AQ Index Pollutant
Not available.

Snow Depth

Station Depth Elevation

Earthquake Activity

City Distance Mag. Time & Date
Minimum magnitude displayed is 2.5.

Coastal Water Temperatures

Place Temperature

Stations

Nearby Weather Stations

Station Location Temp. Windchill Dew Point Humidity Wind Precip. Elev Updated Type
                   

Watches & Warnings

There are currently no watches in effect.